sensor_id;sensor_type;location;lat;lon;timestamp;P1;durP1;ratioP1;P2;durP2;ratioP2
48795;SDS011;34607;48.520;-1.330;2023-08-06T06:19:32;5.63;;;1.90;;
48795;SDS011;34607;48.520;-1.330;2023-08-06T06:21:59;6.60;;;1.80;;
48795;SDS011;34607;48.520;-1.330;2023-08-06T06:24:26;8.13;;;2.42;;
48795;SDS011;34607;48.520;-1.330;2023-08-06T06:26:53;8.65;;;2.45;;
48795;SDS011;34607;48.520;-1.330;2023-08-06T06:29:20;5.90;;;2.88;;
48795;SDS011;34607;48.520;-1.330;2023-08-06T06:31:47;10.13;;;2.30;;
48795;SDS011;34607;48.520;-1.330;2023-08-06T06:34:14;6.60;;;2.22;;
48795;SDS011;34607;48.520;-1.330;2023-08-06T06:36:43;9.38;;;2.28;;
48795;SDS011;34607;48.520;-1.330;2023-08-06T06:39:10;7.47;;;2.47;;
48795;SDS011;34607;48.520;-1.330;2023-08-06T06:41:37;9.27;;;2.63;;
48795;SDS011;34607;48.520;-1.330;2023-08-06T06:44:15;7.68;;;2.67;;
48795;SDS011;34607;48.520;-1.330;2023-08-06T06:46:42;7.63;;;2.40;;
48795;SDS011;34607;48.520;-1.330;2023-08-06T06:49:09;9.02;;;2.75;;
48795;SDS011;34607;48.520;-1.330;2023-08-06T06:51:36;7.60;;;2.55;;
48795;SDS011;34607;48.520;-1.330;2023-08-06T06:54:05;10.35;;;2.58;;
48795;SDS011;34607;48.520;-1.330;2023-08-06T06:56:32;9.68;;;2.83;;
48795;SDS011;34607;48.520;-1.330;2023-08-06T06:58:59;7.65;;;2.20;;
48795;SDS011;34607;48.520;-1.330;2023-08-06T07:01:26;11.02;;;2.75;;
48795;SDS011;34607;48.520;-1.330;2023-08-06T07:03:53;11.35;;;2.67;;
48795;SDS011;34607;48.520;-1.330;2023-08-06T07:06:20;12.38;;;3.22;;
48795;SDS011;34607;48.520;-1.330;2023-08-06T07:08:47;9.18;;;2.80;;
48795;SDS011;34607;48.520;-1.330;2023-08-06T07:11:15;19.27;;;3.13;;
48795;SDS011;34607;48.520;-1.330;2023-08-06T07:13:42;11.32;;;3.35;;
48795;SDS011;34607;48.520;-1.330;2023-08-06T07:16:09;10.15;;;2.85;;
48795;SDS011;34607;48.520;-1.330;2023-08-06T07:18:36;8.13;;;2.20;;
48795;SDS011;34607;48.520;-1.330;2023-08-06T07:21:03;8.13;;;3.53;;
48795;SDS011;34607;48.520;-1.330;2023-08-06T07:23:30;10.23;;;2.88;;
48795;SDS011;34607;48.520;-1.330;2023-08-06T07:25:57;7.20;;;2.30;;
48795;SDS011;34607;48.520;-1.330;2023-08-06T07:28:26;10.23;;;3.45;;
48795;SDS011;34607;48.520;-1.330;2023-08-06T07:30:53;9.02;;;2.83;;
48795;SDS011;34607;48.520;-1.330;2023-08-06T07:33:20;9.65;;;2.30;;
48795;SDS011;34607;48.520;-1.330;2023-08-06T07:35:47;6.35;;;2.92;;
48795;SDS011;34607;48.520;-1.330;2023-08-06T07:38:14;3.97;;;2.30;;
48795;SDS011;34607;48.520;-1.330;2023-08-06T07:40:41;6.15;;;2.33;;
48795;SDS011;34607;48.520;-1.330;2023-08-06T07:43:08;8.85;;;2.80;;
48795;SDS011;34607;48.520;-1.330;2023-08-06T07:45:37;9.07;;;2.33;;
48795;SDS011;34607;48.520;-1.330;2023-08-06T07:48:04;4.20;;;2.10;;
48795;SDS011;34607;48.520;-1.330;2023-08-06T07:50:31;6.63;;;2.83;;
48795;SDS011;34607;48.520;-1.330;2023-08-06T07:52:58;6.13;;;2.15;;
48795;SDS011;34607;48.520;-1.330;2023-08-06T07:55:26;7.55;;;1.98;;
48795;SDS011;34607;48.520;-1.330;2023-08-06T07:57:53;9.15;;;2.35;;
48795;SDS011;34607;48.520;-1.330;2023-08-06T08:00:20;9.80;;;2.13;;
48795;SDS011;34607;48.520;-1.330;2023-08-06T08:02:49;6.20;;;1.85;;
48795;SDS011;34607;48.520;-1.330;2023-08-06T08:05:17;4.05;;;1.70;;
48795;SDS011;34607;48.520;-1.330;2023-08-06T08:07:44;5.38;;;2.20;;
48795;SDS011;34607;48.520;-1.330;2023-08-06T08:10:11;4.40;;;1.60;;
48795;SDS011;34607;48.520;-1.330;2023-08-06T08:12:38;4.13;;;1.60;;
48795;SDS011;34607;48.520;-1.330;2023-08-06T08:15:05;4.63;;;1.55;;
48795;SDS011;34607;48.520;-1.330;2023-08-06T08:17:33;5.63;;;1.63;;
48795;SDS011;34607;48.520;-1.330;2023-08-06T08:20:01;6.72;;;1.70;;
48795;SDS011;34607;48.520;-1.330;2023-08-06T08:22:28;5.65;;;2.22;;
48795;SDS011;34607;48.520;-1.330;2023-08-06T08:24:55;5.28;;;1.58;;
48795;SDS011;34607;48.520;-1.330;2023-08-06T08:27:22;5.32;;;1.65;;
48795;SDS011;34607;48.520;-1.330;2023-08-06T08:29:49;4.70;;;1.75;;
48795;SDS011;34607;48.520;-1.330;2023-08-06T08:32:16;5.75;;;1.63;;
48795;SDS011;34607;48.520;-1.330;2023-08-06T08:34:43;4.28;;;1.55;;
48795;SDS011;34607;48.520;-1.330;2023-08-06T08:37:12;4.20;;;1.30;;
48795;SDS011;34607;48.520;-1.330;2023-08-06T08:39:39;4.85;;;1.67;;
48795;SDS011;34607;48.520;-1.330;2023-08-06T08:42:06;3.22;;;2.05;;
48795;SDS011;34607;48.520;-1.330;2023-08-06T08:44:34;4.70;;;1.45;;
48795;SDS011;34607;48.520;-1.330;2023-08-06T08:47:04;4.60;;;1.73;;
48795;SDS011;34607;48.520;-1.330;2023-08-06T08:49:33;4.68;;;1.52;;
48795;SDS011;34607;48.520;-1.330;2023-08-06T08:52:02;5.32;;;2.03;;
48795;SDS011;34607;48.520;-1.330;2023-08-06T08:54:33;4.95;;;1.52;;
48795;SDS011;34607;48.520;-1.330;2023-08-06T08:57:01;2.60;;;1.33;;
48795;SDS011;34607;48.520;-1.330;2023-08-06T08:59:29;12.82;;;2.17;;
48795;SDS011;34607;48.520;-1.330;2023-08-06T09:01:56;5.63;;;1.30;;
48795;SDS011;34607;48.520;-1.330;2023-08-06T09:04:24;6.18;;;1.70;;
48795;SDS011;34607;48.520;-1.330;2023-08-06T09:06:54;5.03;;;1.30;;
48795;SDS011;34607;48.520;-1.330;2023-08-06T09:09:25;4.72;;;1.30;;
48795;SDS011;34607;48.520;-1.330;2023-08-06T09:11:57;6.43;;;1.50;;
48795;SDS011;34607;48.520;-1.330;2023-08-06T09:14:27;3.13;;;1.87;;
48795;SDS011;34607;48.520;-1.330;2023-08-06T09:16:54;8.40;;;1.63;;
48795;SDS011;34607;48.520;-1.330;2023-08-06T09:19:22;2.75;;;1.05;;
48795;SDS011;34607;48.520;-1.330;2023-08-06T09:21:50;2.78;;;1.25;;
48795;SDS011;34607;48.520;-1.330;2023-08-06T09:24:18;5.93;;;1.98;;
48795;SDS011;34607;48.520;-1.330;2023-08-06T09:26:45;4.38;;;1.20;;
48795;SDS011;34607;48.520;-1.330;2023-08-06T09:29:14;5.47;;;1.45;;
48795;SDS011;34607;48.520;-1.330;2023-08-06T09:31:41;7.72;;;1.38;;
48795;SDS011;34607;48.520;-1.330;2023-08-06T09:34:11;3.15;;;1.10;;
48795;SDS011;34607;48.520;-1.330;2023-08-06T09:36:42;7.15;;;1.35;;
48795;SDS011;34607;48.520;-1.330;2023-08-06T09:39:13;4.13;;;1.50;;
48795;SDS011;34607;48.520;-1.330;2023-08-06T09:41:40;3.35;;;1.17;;
48795;SDS011;34607;48.520;-1.330;2023-08-06T09:44:15;4.82;;;1.60;;
48795;SDS011;34607;48.520;-1.330;2023-08-06T09:46:46;6.35;;;1.85;;
48795;SDS011;34607;48.520;-1.330;2023-08-06T09:49:14;1.88;;;1.25;;
48795;SDS011;34607;48.520;-1.330;2023-08-06T09:51:41;5.05;;;1.35;;
48795;SDS011;34607;48.520;-1.330;2023-08-06T09:54:10;3.33;;;1.15;;
48795;SDS011;34607;48.520;-1.330;2023-08-06T09:56:39;5.25;;;1.50;;
48795;SDS011;34607;48.520;-1.330;2023-08-06T09:59:07;3.67;;;0.95;;
48795;SDS011;34607;48.520;-1.330;2023-08-06T10:01:35;4.25;;;1.42;;
48795;SDS011;34607;48.520;-1.330;2023-08-06T10:04:03;4.82;;;1.30;;
48795;SDS011;34607;48.520;-1.330;2023-08-06T10:06:33;3.95;;;1.48;;
48795;SDS011;34607;48.520;-1.330;2023-08-06T10:09:01;2.97;;;0.98;;
48795;SDS011;34607;48.520;-1.330;2023-08-06T10:11:28;3.45;;;0.77;;
48795;SDS011;34607;48.520;-1.330;2023-08-06T10:13:57;3.10;;;0.98;;
48795;SDS011;34607;48.520;-1.330;2023-08-06T10:16:28;3.78;;;1.23;;
48795;SDS011;34607;48.520;-1.330;2023-08-06T10:18:58;4.35;;;1.38;;
48795;SDS011;34607;48.520;-1.330;2023-08-06T10:21:26;4.88;;;1.30;;
48795;SDS011;34607;48.520;-1.330;2023-08-06T10:23:55;5.18;;;1.45;;
48795;SDS011;34607;48.520;-1.330;2023-08-06T10:26:25;2.03;;;0.82;;
48795;SDS011;34607;48.520;-1.330;2023-08-06T10:28:53;4.25;;;1.17;;
48795;SDS011;34607;48.520;-1.330;2023-08-06T10:31:24;3.25;;;1.00;;
48795;SDS011;34607;48.520;-1.330;2023-08-06T10:34:22;4.00;;;1.30;;
48795;SDS011;34607;48.520;-1.330;2023-08-06T10:36:49;3.45;;;1.00;;
48795;SDS011;34607;48.520;-1.330;2023-08-06T10:39:16;2.72;;;1.10;;
48795;SDS011;34607;48.520;-1.330;2023-08-06T10:41:43;3.08;;;1.00;;
48795;SDS011;34607;48.520;-1.330;2023-08-06T10:44:10;5.25;;;0.90;;
48795;SDS011;34607;48.520;-1.330;2023-08-06T10:46:38;4.78;;;1.48;;
48795;SDS011;34607;48.520;-1.330;2023-08-06T10:49:05;3.85;;;0.93;;
48795;SDS011;34607;48.520;-1.330;2023-08-06T10:51:34;5.85;;;1.25;;
48795;SDS011;34607;48.520;-1.330;2023-08-06T10:54:02;5.35;;;1.20;;
48795;SDS011;34607;48.520;-1.330;2023-08-06T10:56:29;3.83;;;0.98;;
48795;SDS011;34607;48.520;-1.330;2023-08-06T10:58:56;5.25;;;1.55;;
48795;SDS011;34607;48.520;-1.330;2023-08-06T11:01:24;3.40;;;1.20;;
48795;SDS011;34607;48.520;-1.330;2023-08-06T11:03:55;2.55;;;1.00;;
48795;SDS011;34607;48.520;-1.330;2023-08-06T11:06:22;5.57;;;1.50;;
48795;SDS011;34607;48.520;-1.330;2023-08-06T11:08:51;3.45;;;0.90;;
48795;SDS011;34607;48.520;-1.330;2023-08-06T11:11:19;1.65;;;1.00;;
48795;SDS011;34607;48.520;-1.330;2023-08-06T11:13:48;5.43;;;1.10;;
48795;SDS011;34607;48.520;-1.330;2023-08-06T11:16:17;3.47;;;0.90;;
48795;SDS011;34607;48.520;-1.330;2023-08-06T11:18:45;7.18;;;1.60;;
48795;SDS011;34607;48.520;-1.330;2023-08-06T11:21:13;4.25;;;1.00;;
48795;SDS011;34607;48.520;-1.330;2023-08-06T11:23:40;3.17;;;0.82;;
48795;SDS011;34607;48.520;-1.330;2023-08-06T11:26:09;1.98;;;0.75;;
48795;SDS011;34607;48.520;-1.330;2023-08-06T11:28:36;1.98;;;1.10;;
48795;SDS011;34607;48.520;-1.330;2023-08-06T11:31:03;5.57;;;1.35;;
48795;SDS011;34607;48.520;-1.330;2023-08-06T11:33:31;4.35;;;1.20;;
48795;SDS011;34607;48.520;-1.330;2023-08-06T11:35:58;3.15;;;0.98;;
48795;SDS011;34607;48.520;-1.330;2023-08-06T11:38:26;2.90;;;0.93;;
48795;SDS011;34607;48.520;-1.330;2023-08-06T11:40:54;3.67;;;0.77;;
48795;SDS011;34607;48.520;-1.330;2023-08-06T11:43:23;3.45;;;1.10;;
48795;SDS011;34607;48.520;-1.330;2023-08-06T11:45:50;6.25;;;3.25;;
48795;SDS011;34607;48.520;-1.330;2023-08-06T11:48:19;4.28;;;1.40;;
48795;SDS011;34607;48.520;-1.330;2023-08-06T11:50:46;3.53;;;1.60;;
48795;SDS011;34607;48.520;-1.330;2023-08-06T11:53:13;6.13;;;1.70;;
48795;SDS011;34607;48.520;-1.330;2023-08-06T11:55:41;4.72;;;1.05;;
48795;SDS011;34607;48.520;-1.330;2023-08-06T11:58:09;2.92;;;1.20;;
48795;SDS011;34607;48.520;-1.330;2023-08-06T12:00:39;3.67;;;0.93;;
48795;SDS011;34607;48.520;-1.330;2023-08-06T12:03:06;3.58;;;1.45;;
48795;SDS011;34607;48.520;-1.330;2023-08-06T12:05:33;5.22;;;1.38;;
48795;SDS011;34607;48.520;-1.330;2023-08-06T12:08:01;5.22;;;1.48;;
48795;SDS011;34607;48.520;-1.330;2023-08-06T12:10:29;10.75;;;1.88;;
48795;SDS011;34607;48.520;-1.330;2023-08-06T12:12:57;2.40;;;1.23;;
48795;SDS011;34607;48.520;-1.330;2023-08-06T12:15:24;6.93;;;1.25;;
48795;SDS011;34607;48.520;-1.330;2023-08-06T12:17:53;2.25;;;1.20;;
48795;SDS011;34607;48.520;-1.330;2023-08-06T12:20:20;4.32;;;1.13;;
48795;SDS011;34607;48.520;-1.330;2023-08-06T12:22:47;6.00;;;1.50;;
48795;SDS011;34607;48.520;-1.330;2023-08-06T12:25:14;3.90;;;1.38;;
48795;SDS011;34607;48.520;-1.330;2023-08-06T12:27:42;3.90;;;1.00;;
48795;SDS011;34607;48.520;-1.330;2023-08-06T12:30:12;4.03;;;1.70;;
48795;SDS011;34607;48.520;-1.330;2023-08-06T12:32:39;3.10;;;1.20;;
48795;SDS011;34607;48.520;-1.330;2023-08-06T12:35:08;5.15;;;1.02;;
48795;SDS011;34607;48.520;-1.330;2023-08-06T12:37:35;4.00;;;0.95;;
48795;SDS011;34607;48.520;-1.330;2023-08-06T12:40:04;3.28;;;1.10;;
48795;SDS011;34607;48.520;-1.330;2023-08-06T12:42:31;2.13;;;1.08;;
48795;SDS011;34607;48.520;-1.330;2023-08-06T12:44:58;2.17;;;0.90;;
48795;SDS011;34607;48.520;-1.330;2023-08-06T12:47:25;3.15;;;0.98;;
48795;SDS011;34607;48.520;-1.330;2023-08-06T12:49:53;3.38;;;0.80;;
48795;SDS011;34607;48.520;-1.330;2023-08-06T12:52:21;3.42;;;1.20;;
48795;SDS011;34607;48.520;-1.330;2023-08-06T12:54:48;2.05;;;0.98;;
48795;SDS011;34607;48.520;-1.330;2023-08-06T12:57:15;1.02;;;0.88;;
48795;SDS011;34607;48.520;-1.330;2023-08-06T12:59:42;6.03;;;1.13;;
48795;SDS011;34607;48.520;-1.330;2023-08-06T13:02:09;1.40;;;0.70;;
48795;SDS011;34607;48.520;-1.330;2023-08-06T13:04:36;3.50;;;1.00;;
48795;SDS011;34607;48.520;-1.330;2023-08-06T13:07:03;3.60;;;0.90;;
48795;SDS011;34607;48.520;-1.330;2023-08-06T13:09:33;1.88;;;0.85;;
48795;SDS011;34607;48.520;-1.330;2023-08-06T13:12:00;3.70;;;0.93;;
48795;SDS011;34607;48.520;-1.330;2023-08-06T13:14:31;3.05;;;0.95;;
48795;SDS011;34607;48.520;-1.330;2023-08-06T13:16:58;4.82;;;1.10;;
48795;SDS011;34607;48.520;-1.330;2023-08-06T13:19:25;2.90;;;0.90;;
48795;SDS011;34607;48.520;-1.330;2023-08-06T13:21:58;4.78;;;0.93;;
48795;SDS011;34607;48.520;-1.330;2023-08-06T13:24:28;4.95;;;1.38;;
48795;SDS011;34607;48.520;-1.330;2023-08-06T13:26:57;4.20;;;1.50;;
48795;SDS011;34607;48.520;-1.330;2023-08-06T13:29:24;3.83;;;1.33;;
48795;SDS011;34607;48.520;-1.330;2023-08-06T13:31:52;3.00;;;0.90;;
48795;SDS011;34607;48.520;-1.330;2023-08-06T13:34:19;3.42;;;1.02;;
48795;SDS011;34607;48.520;-1.330;2023-08-06T13:36:46;3.17;;;1.27;;
48795;SDS011;34607;48.520;-1.330;2023-08-06T13:39:14;3.60;;;0.77;;
48795;SDS011;34607;48.520;-1.330;2023-08-06T13:41:41;2.88;;;1.10;;
48795;SDS011;34607;48.520;-1.330;2023-08-06T13:44:10;2.30;;;1.30;;
48795;SDS011;34607;48.520;-1.330;2023-08-06T13:46:39;3.72;;;1.02;;
48795;SDS011;34607;48.520;-1.330;2023-08-06T13:49:06;3.03;;;1.08;;
48795;SDS011;34607;48.520;-1.330;2023-08-06T13:51:33;8.25;;;1.90;;
48795;SDS011;34607;48.520;-1.330;2023-08-06T13:54:01;1.75;;;1.10;;
48795;SDS011;34607;48.520;-1.330;2023-08-06T13:56:28;1.65;;;1.00;;
48795;SDS011;34607;48.520;-1.330;2023-08-06T13:58:56;4.32;;;1.17;;
48795;SDS011;34607;48.520;-1.330;2023-08-06T14:01:24;4.97;;;1.17;;
48795;SDS011;34607;48.520;-1.330;2023-08-06T14:03:51;5.18;;;1.27;;
48795;SDS011;34607;48.520;-1.330;2023-08-06T14:06:18;7.03;;;1.10;;
48795;SDS011;34607;48.520;-1.330;2023-08-06T14:08:45;2.30;;;0.93;;
48795;SDS011;34607;48.520;-1.330;2023-08-06T14:11:13;2.63;;;1.00;;
48795;SDS011;34607;48.520;-1.330;2023-08-06T14:13:40;4.60;;;1.15;;
48795;SDS011;34607;48.520;-1.330;2023-08-06T14:16:07;4.60;;;1.67;;
48795;SDS011;34607;48.520;-1.330;2023-08-06T14:18:36;3.38;;;1.27;;
48795;SDS011;34607;48.520;-1.330;2023-08-06T14:21:03;4.10;;;1.10;;
48795;SDS011;34607;48.520;-1.330;2023-08-06T14:23:31;2.95;;;1.40;;
48795;SDS011;34607;48.520;-1.330;2023-08-06T14:25:58;5.70;;;2.13;;
48795;SDS011;34607;48.520;-1.330;2023-08-06T14:28:25;5.00;;;1.45;;
48795;SDS011;34607;48.520;-1.330;2023-08-06T14:30:52;4.80;;;1.25;;
48795;SDS011;34607;48.520;-1.330;2023-08-06T14:33:19;3.70;;;1.33;;
48795;SDS011;34607;48.520;-1.330;2023-08-06T14:35:47;7.50;;;1.40;;
48795;SDS011;34607;48.520;-1.330;2023-08-06T14:38:14;7.30;;;1.35;;
48795;SDS011;34607;48.520;-1.330;2023-08-06T14:40:43;3.60;;;1.42;;
48795;SDS011;34607;48.520;-1.330;2023-08-06T14:43:10;4.00;;;1.42;;
48795;SDS011;34607;48.520;-1.330;2023-08-06T14:45:37;5.70;;;1.63;;
48795;SDS011;34607;48.520;-1.330;2023-08-06T14:48:05;6.15;;;1.70;;
48795;SDS011;34607;48.520;-1.330;2023-08-06T14:50:33;4.15;;;1.65;;
48795;SDS011;34607;48.520;-1.330;2023-08-06T14:53:01;3.05;;;1.40;;
48795;SDS011;34607;48.520;-1.330;2023-08-06T14:55:29;4.88;;;1.77;;
48795;SDS011;34607;48.520;-1.330;2023-08-06T14:57:56;6.30;;;1.77;;
48795;SDS011;34607;48.520;-1.330;2023-08-06T15:00:23;6.68;;;1.80;;
48795;SDS011;34607;48.520;-1.330;2023-08-06T15:02:50;5.03;;;1.77;;
48795;SDS011;34607;48.520;-1.330;2023-08-06T15:05:17;3.53;;;1.42;;
48795;SDS011;34607;48.520;-1.330;2023-08-06T15:07:45;4.55;;;1.80;;
48795;SDS011;34607;48.520;-1.330;2023-08-06T15:10:13;4.00;;;2.15;;
48795;SDS011;34607;48.520;-1.330;2023-08-06T15:12:41;6.25;;;1.35;;
48795;SDS011;34607;48.520;-1.330;2023-08-06T15:15:08;4.30;;;1.88;;
48795;SDS011;34607;48.520;-1.330;2023-08-06T15:17:35;5.20;;;1.30;;
48795;SDS011;34607;48.520;-1.330;2023-08-06T15:20:03;7.35;;;2.42;;
48795;SDS011;34607;48.520;-1.330;2023-08-06T15:22:30;3.40;;;1.55;;
48795;SDS011;34607;48.520;-1.330;2023-08-06T15:24:58;6.70;;;1.73;;
48795;SDS011;34607;48.520;-1.330;2023-08-06T15:27:27;7.93;;;2.10;;
48795;SDS011;34607;48.520;-1.330;2023-08-06T15:29:54;4.93;;;1.60;;
48795;SDS011;34607;48.520;-1.330;2023-08-06T15:32:21;4.43;;;1.58;;
48795;SDS011;34607;48.520;-1.330;2023-08-06T15:34:48;5.53;;;1.98;;
48795;SDS011;34607;48.520;-1.330;2023-08-06T15:37:15;5.70;;;1.67;;
48795;SDS011;34607;48.520;-1.330;2023-08-06T15:39:43;4.72;;;1.50;;
48795;SDS011;34607;48.520;-1.330;2023-08-06T15:42:10;3.83;;;1.60;;
48795;SDS011;34607;48.520;-1.330;2023-08-06T15:44:39;3.83;;;1.40;;
48795;SDS011;34607;48.520;-1.330;2023-08-06T15:47:06;3.85;;;1.50;;
48795;SDS011;34607;48.520;-1.330;2023-08-06T15:49:33;3.80;;;1.30;;
48795;SDS011;34607;48.520;-1.330;2023-08-06T15:52:01;4.13;;;1.60;;
48795;SDS011;34607;48.520;-1.330;2023-08-06T15:54:28;6.13;;;2.35;;
48795;SDS011;34607;48.520;-1.330;2023-08-06T15:56:55;7.00;;;1.73;;
48795;SDS011;34607;48.520;-1.330;2023-08-06T15:59:23;5.65;;;1.83;;
48795;SDS011;34607;48.520;-1.330;2023-08-06T16:01:53;5.70;;;1.80;;
48795;SDS011;34607;48.520;-1.330;2023-08-06T16:04:22;7.07;;;1.80;;
48795;SDS011;34607;48.520;-1.330;2023-08-06T16:06:50;5.10;;;1.80;;
48795;SDS011;34607;48.520;-1.330;2023-08-06T16:09:17;3.30;;;1.60;;
48795;SDS011;34607;48.520;-1.330;2023-08-06T16:11:44;9.20;;;1.95;;
48795;SDS011;34607;48.520;-1.330;2023-08-06T16:14:11;6.25;;;1.65;;
48795;SDS011;34607;48.520;-1.330;2023-08-06T16:16:38;4.47;;;2.03;;
48795;SDS011;34607;48.520;-1.330;2023-08-06T16:19:09;6.22;;;1.88;;
48795;SDS011;34607;48.520;-1.330;2023-08-06T16:21:36;6.90;;;2.20;;
48795;SDS011;34607;48.520;-1.330;2023-08-06T16:24:03;3.72;;;1.52;;
48795;SDS011;34607;48.520;-1.330;2023-08-06T16:26:30;6.22;;;1.80;;
48795;SDS011;34607;48.520;-1.330;2023-08-06T16:28:57;6.40;;;2.25;;
48795;SDS011;34607;48.520;-1.330;2023-08-06T16:31:25;6.95;;;2.28;;
48795;SDS011;34607;48.520;-1.330;2023-08-06T16:33:52;5.15;;;2.25;;
48795;SDS011;34607;48.520;-1.330;2023-08-06T16:36:20;5.80;;;2.20;;
48795;SDS011;34607;48.520;-1.330;2023-08-06T16:38:47;7.75;;;2.20;;
48795;SDS011;34607;48.520;-1.330;2023-08-06T16:41:14;2.78;;;1.40;;
48795;SDS011;34607;48.520;-1.330;2023-08-06T16:43:43;7.55;;;2.20;;
48795;SDS011;34607;48.520;-1.330;2023-08-06T16:46:10;7.50;;;1.92;;
48795;SDS011;34607;48.520;-1.330;2023-08-06T16:48:37;6.10;;;2.08;;
48795;SDS011;34607;48.520;-1.330;2023-08-06T16:51:04;5.20;;;1.85;;
48795;SDS011;34607;48.520;-1.330;2023-08-06T16:53:33;5.53;;;1.83;;
48795;SDS011;34607;48.520;-1.330;2023-08-06T16:56:00;8.75;;;2.20;;
48795;SDS011;34607;48.520;-1.330;2023-08-06T16:58:27;8.82;;;2.30;;
48795;SDS011;34607;48.520;-1.330;2023-08-06T17:00:54;8.38;;;2.40;;
48795;SDS011;34607;48.520;-1.330;2023-08-06T17:03:25;11.52;;;2.38;;
48795;SDS011;34607;48.520;-1.330;2023-08-06T17:05:52;6.13;;;2.00;;
48795;SDS011;34607;48.520;-1.330;2023-08-06T17:08:20;6.60;;;1.73;;
48795;SDS011;34607;48.520;-1.330;2023-08-06T17:10:49;5.78;;;2.45;;
48795;SDS011;34607;48.520;-1.330;2023-08-06T17:13:16;8.45;;;2.45;;
48795;SDS011;34607;48.520;-1.330;2023-08-06T17:15:45;5.10;;;2.00;;
48795;SDS011;34607;48.520;-1.330;2023-08-06T17:18:12;6.22;;;2.25;;
48795;SDS011;34607;48.520;-1.330;2023-08-06T17:20:41;5.63;;;1.95;;
48795;SDS011;34607;48.520;-1.330;2023-08-06T17:23:08;9.27;;;2.60;;
48795;SDS011;34607;48.520;-1.330;2023-08-06T17:25:35;7.50;;;1.85;;
48795;SDS011;34607;48.520;-1.330;2023-08-06T17:28:04;6.20;;;2.15;;
48795;SDS011;34607;48.520;-1.330;2023-08-06T17:30:31;11.52;;;2.13;;
48795;SDS011;34607;48.520;-1.330;2023-08-06T17:32:58;7.63;;;3.15;;
48795;SDS011;34607;48.520;-1.330;2023-08-06T17:35:25;8.13;;;2.08;;
48795;SDS011;34607;48.520;-1.330;2023-08-06T17:37:54;7.97;;;2.40;;
48795;SDS011;34607;48.520;-1.330;2023-08-06T17:40:22;8.10;;;2.40;;
48795;SDS011;34607;48.520;-1.330;2023-08-06T17:42:49;5.63;;;2.08;;
48795;SDS011;34607;48.520;-1.330;2023-08-06T17:45:18;4.20;;;1.88;;
48795;SDS011;34607;48.520;-1.330;2023-08-06T17:47:46;8.80;;;2.10;;
48795;SDS011;34607;48.520;-1.330;2023-08-06T17:50:13;10.35;;;2.15;;
48795;SDS011;34607;48.520;-1.330;2023-08-06T17:52:40;8.68;;;2.50;;
48795;SDS011;34607;48.520;-1.330;2023-08-06T17:55:07;6.13;;;2.45;;
48795;SDS011;34607;48.520;-1.330;2023-08-06T17:57:34;8.70;;;2.17;;
48795;SDS011;34607;48.520;-1.330;2023-08-06T18:00:02;5.10;;;2.40;;
48795;SDS011;34607;48.520;-1.330;2023-08-06T18:02:38;6.65;;;2.67;;
48795;SDS011;34607;48.520;-1.330;2023-08-06T18:05:05;9.48;;;2.53;;
48795;SDS011;34607;48.520;-1.330;2023-08-06T18:07:32;6.70;;;2.22;;
48795;SDS011;34607;48.520;-1.330;2023-08-06T18:09:59;6.95;;;2.25;;
48795;SDS011;34607;48.520;-1.330;2023-08-06T18:12:26;8.43;;;2.13;;
48795;SDS011;34607;48.520;-1.330;2023-08-06T18:14:55;6.22;;;1.65;;
48795;SDS011;34607;48.520;-1.330;2023-08-06T18:17:23;7.15;;;2.40;;
48795;SDS011;34607;48.520;-1.330;2023-08-06T18:19:51;8.07;;;2.10;;
48795;SDS011;34607;48.520;-1.330;2023-08-06T18:22:18;7.65;;;2.38;;
48795;SDS011;34607;48.520;-1.330;2023-08-06T18:24:45;10.25;;;2.30;;
48795;SDS011;34607;48.520;-1.330;2023-08-06T18:27:13;10.15;;;2.53;;
48795;SDS011;34607;48.520;-1.330;2023-08-06T18:29:43;7.18;;;2.50;;
48795;SDS011;34607;48.520;-1.330;2023-08-06T18:32:10;6.47;;;2.50;;
48795;SDS011;34607;48.520;-1.330;2023-08-06T18:34:37;10.45;;;2.67;;
48795;SDS011;34607;48.520;-1.330;2023-08-06T18:37:06;6.28;;;2.53;;
48795;SDS011;34607;48.520;-1.330;2023-08-06T18:39:33;8.63;;;2.40;;
48795;SDS011;34607;48.520;-1.330;2023-08-06T18:42:00;8.27;;;2.50;;
48795;SDS011;34607;48.520;-1.330;2023-08-06T18:44:27;5.30;;;2.30;;
48795;SDS011;34607;48.520;-1.330;2023-08-06T18:46:55;8.85;;;2.25;;
48795;SDS011;34607;48.520;-1.330;2023-08-06T18:49:22;6.28;;;2.63;;
48795;SDS011;34607;48.520;-1.330;2023-08-06T18:51:49;8.80;;;2.80;;
48795;SDS011;34607;48.520;-1.330;2023-08-06T18:54:17;9.45;;;2.75;;
48795;SDS011;34607;48.520;-1.330;2023-08-06T18:56:44;10.43;;;2.90;;
48795;SDS011;34607;48.520;-1.330;2023-08-06T18:59:11;7.40;;;2.53;;
48795;SDS011;34607;48.520;-1.330;2023-08-06T19:01:41;6.82;;;2.72;;
48795;SDS011;34607;48.520;-1.330;2023-08-06T19:04:08;8.30;;;2.30;;
48795;SDS011;34607;48.520;-1.330;2023-08-06T19:06:35;8.20;;;2.17;;
48795;SDS011;34607;48.520;-1.330;2023-08-06T19:09:02;8.57;;;3.08;;
48795;SDS011;34607;48.520;-1.330;2023-08-06T19:11:30;10.57;;;2.47;;
48795;SDS011;34607;48.520;-1.330;2023-08-06T19:13:57;7.43;;;2.97;;
48795;SDS011;34607;48.520;-1.330;2023-08-06T19:16:24;7.38;;;2.75;;
48795;SDS011;34607;48.520;-1.330;2023-08-06T19:18:51;6.85;;;2.38;;
48795;SDS011;34607;48.520;-1.330;2023-08-06T19:21:18;8.50;;;2.30;;
48795;SDS011;34607;48.520;-1.330;2023-08-06T19:23:46;6.95;;;2.58;;
48795;SDS011;34607;48.520;-1.330;2023-08-06T19:26:13;8.15;;;2.60;;
48795;SDS011;34607;48.520;-1.330;2023-08-06T19:28:41;7.97;;;2.67;;
48795;SDS011;34607;48.520;-1.330;2023-08-06T19:31:09;5.25;;;2.00;;
48795;SDS011;34607;48.520;-1.330;2023-08-06T19:33:36;8.40;;;2.17;;
48795;SDS011;34607;48.520;-1.330;2023-08-06T19:36:03;5.40;;;2.30;;
48795;SDS011;34607;48.520;-1.330;2023-08-06T19:38:31;7.97;;;2.28;;
48795;SDS011;34607;48.520;-1.330;2023-08-06T19:41:02;8.75;;;3.00;;
48795;SDS011;34607;48.520;-1.330;2023-08-06T19:43:31;7.20;;;2.25;;
48795;SDS011;34607;48.520;-1.330;2023-08-06T19:45:59;6.70;;;2.97;;
48795;SDS011;34607;48.520;-1.330;2023-08-06T19:48:28;7.75;;;3.13;;
48795;SDS011;34607;48.520;-1.330;2023-08-06T19:50:57;7.10;;;2.30;;
48795;SDS011;34607;48.520;-1.330;2023-08-06T19:53:26;7.28;;;3.05;;
48795;SDS011;34607;48.520;-1.330;2023-08-06T19:55:55;8.15;;;2.60;;
